sensor_id;sensor_type;location;lat;lon;timestamp;P1;durP1;ratioP1;P2;durP2;ratioP2
20069;SDS011;10195;50.868;4.382;2023-06-19T00:01:42;7.25;;;4.22;;
20069;SDS011;10195;50.868;4.382;2023-06-19T00:04:08;5.85;;;3.60;;
20069;SDS011;10195;50.868;4.382;2023-06-19T00:06:34;7.50;;;4.10;;
20069;SDS011;10195;50.868;4.382;2023-06-19T00:09:00;11.32;;;4.30;;
20069;SDS011;10195;50.868;4.382;2023-06-19T00:11:26;6.85;;;4.28;;
20069;SDS011;10195;50.868;4.382;2023-06-19T00:13:51;5.90;;;4.05;;
20069;SDS011;10195;50.868;4.382;2023-06-19T00:16:17;5.75;;;3.90;;
20069;SDS011;10195;50.868;4.382;2023-06-19T00:18:44;10.52;;;4.20;;
20069;SDS011;10195;50.868;4.382;2023-06-19T00:21:10;8.40;;;3.97;;
20069;SDS011;10195;50.868;4.382;2023-06-19T00:23:36;10.38;;;4.18;;
20069;SDS011;10195;50.868;4.382;2023-06-19T00:26:01;6.60;;;3.72;;
20069;SDS011;10195;50.868;4.382;2023-06-19T00:28:28;5.45;;;3.83;;
20069;SDS011;10195;50.868;4.382;2023-06-19T00:30:56;6.18;;;3.63;;
20069;SDS011;10195;50.868;4.382;2023-06-19T00:33:22;7.47;;;3.75;;
20069;SDS011;10195;50.868;4.382;2023-06-19T00:35:51;6.22;;;3.60;;
20069;SDS011;10195;50.868;4.382;2023-06-19T00:38:17;6.55;;;3.70;;
20069;SDS011;10195;50.868;4.382;2023-06-19T00:40:43;8.60;;;3.95;;
20069;SDS011;10195;50.868;4.382;2023-06-19T00:43:08;5.80;;;3.50;;
20069;SDS011;10195;50.868;4.382;2023-06-19T00:45:35;3.95;;;3.55;;
20069;SDS011;10195;50.868;4.382;2023-06-19T00:48:01;6.45;;;3.80;;
20069;SDS011;10195;50.868;4.382;2023-06-19T00:50:29;11.90;;;4.32;;
20069;SDS011;10195;50.868;4.382;2023-06-19T00:52:55;7.05;;;3.50;;
20069;SDS011;10195;50.868;4.382;2023-06-19T00:55:22;4.40;;;3.63;;
20069;SDS011;10195;50.868;4.382;2023-06-19T00:57:50;8.20;;;4.15;;
20069;SDS011;10195;50.868;4.382;2023-06-19T01:00:17;6.68;;;3.63;;
20069;SDS011;10195;50.868;4.382;2023-06-19T01:02:43;6.93;;;3.60;;
20069;SDS011;10195;50.868;4.382;2023-06-19T01:05:09;4.50;;;3.50;;
20069;SDS011;10195;50.868;4.382;2023-06-19T01:10:35;7.47;;;3.28;;
20069;SDS011;10195;50.868;4.382;2023-06-19T01:13:07;6.70;;;3.60;;
20069;SDS011;10195;50.868;4.382;2023-06-19T01:15:53;7.93;;;3.50;;
20069;SDS011;10195;50.868;4.382;2023-06-19T01:18:19;5.68;;;3.30;;
20069;SDS011;10195;50.868;4.382;2023-06-19T01:20:46;6.78;;;3.97;;
20069;SDS011;10195;50.868;4.382;2023-06-19T01:23:14;5.50;;;3.80;;
20069;SDS011;10195;50.868;4.382;2023-06-19T01:25:39;8.18;;;4.20;;
20069;SDS011;10195;50.868;4.382;2023-06-19T01:28:06;9.32;;;3.90;;
20069;SDS011;10195;50.868;4.382;2023-06-19T01:30:35;9.52;;;4.07;;
20069;SDS011;10195;50.868;4.382;2023-06-19T01:35:38;7.63;;;4.20;;
20069;SDS011;10195;50.868;4.382;2023-06-19T01:38:07;6.80;;;3.83;;
20069;SDS011;10195;50.868;4.382;2023-06-19T01:40:33;8.38;;;4.25;;
20069;SDS011;10195;50.868;4.382;2023-06-19T01:43:00;4.95;;;4.40;;
20069;SDS011;10195;50.868;4.382;2023-06-19T01:45:30;8.38;;;4.00;;
20069;SDS011;10195;50.868;4.382;2023-06-19T01:47:56;5.80;;;3.90;;
20069;SDS011;10195;50.868;4.382;2023-06-19T01:50:22;4.65;;;3.75;;
20069;SDS011;10195;50.868;4.382;2023-06-19T01:52:48;7.15;;;4.30;;
20069;SDS011;10195;50.868;4.382;2023-06-19T01:55:14;8.38;;;4.57;;
20069;SDS011;10195;50.868;4.382;2023-06-19T01:57:40;6.05;;;4.45;;
20069;SDS011;10195;50.868;4.382;2023-06-19T02:00:06;6.32;;;4.57;;
20069;SDS011;10195;50.868;4.382;2023-06-19T02:02:35;6.50;;;4.10;;
20069;SDS011;10195;50.868;4.382;2023-06-19T02:05:01;8.50;;;4.63;;
20069;SDS011;10195;50.868;4.382;2023-06-19T02:07:27;7.68;;;4.30;;
20069;SDS011;10195;50.868;4.382;2023-06-19T02:09:53;8.30;;;4.00;;
20069;SDS011;10195;50.868;4.382;2023-06-19T02:12:19;10.05;;;4.63;;
20069;SDS011;10195;50.868;4.382;2023-06-19T02:14:44;7.38;;;4.45;;
20069;SDS011;10195;50.868;4.382;2023-06-19T02:17:10;11.90;;;4.18;;
20069;SDS011;10195;50.868;4.382;2023-06-19T02:19:35;9.73;;;4.70;;
20069;SDS011;10195;50.868;4.382;2023-06-19T02:22:01;7.53;;;4.22;;
20069;SDS011;10195;50.868;4.382;2023-06-19T02:24:27;11.93;;;4.20;;
20069;SDS011;10195;50.868;4.382;2023-06-19T02:26:52;6.93;;;4.68;;
20069;SDS011;10195;50.868;4.382;2023-06-19T02:29:18;9.55;;;4.40;;
20069;SDS011;10195;50.868;4.382;2023-06-19T02:31:45;10.68;;;4.50;;
20069;SDS011;10195;50.868;4.382;2023-06-19T02:34:10;7.25;;;4.53;;
20069;SDS011;10195;50.868;4.382;2023-06-19T02:36:36;8.45;;;4.50;;
20069;SDS011;10195;50.868;4.382;2023-06-19T02:39:05;7.57;;;4.95;;
20069;SDS011;10195;50.868;4.382;2023-06-19T02:41:33;10.07;;;5.00;;
20069;SDS011;10195;50.868;4.382;2023-06-19T02:43:59;10.40;;;4.88;;
20069;SDS011;10195;50.868;4.382;2023-06-19T02:46:25;9.82;;;4.50;;
20069;SDS011;10195;50.868;4.382;2023-06-19T02:48:51;8.93;;;4.60;;
20069;SDS011;10195;50.868;4.382;2023-06-19T02:51:17;8.85;;;4.72;;
20069;SDS011;10195;50.868;4.382;2023-06-19T02:53:42;13.07;;;5.13;;
20069;SDS011;10195;50.868;4.382;2023-06-19T02:56:09;14.75;;;5.35;;
20069;SDS011;10195;50.868;4.382;2023-06-19T02:58:35;9.95;;;5.35;;
20069;SDS011;10195;50.868;4.382;2023-06-19T03:01:02;8.45;;;4.80;;
20069;SDS011;10195;50.868;4.382;2023-06-19T03:03:28;9.88;;;5.10;;
20069;SDS011;10195;50.868;4.382;2023-06-19T03:05:54;6.78;;;5.00;;
20069;SDS011;10195;50.868;4.382;2023-06-19T03:08:20;8.95;;;5.45;;
20069;SDS011;10195;50.868;4.382;2023-06-19T03:10:46;8.25;;;5.10;;
20069;SDS011;10195;50.868;4.382;2023-06-19T03:13:12;11.02;;;6.35;;
20069;SDS011;10195;50.868;4.382;2023-06-19T03:15:38;16.08;;;7.13;;
20069;SDS011;10195;50.868;4.382;2023-06-19T03:18:04;12.40;;;6.65;;
20069;SDS011;10195;50.868;4.382;2023-06-19T03:20:32;8.20;;;6.50;;
20069;SDS011;10195;50.868;4.382;2023-06-19T03:22:58;7.65;;;6.18;;
20069;SDS011;10195;50.868;4.382;2023-06-19T03:25:23;15.02;;;7.10;;
20069;SDS011;10195;50.868;4.382;2023-06-19T03:27:49;10.77;;;6.47;;
20069;SDS011;10195;50.868;4.382;2023-06-19T03:30:15;12.27;;;7.00;;
20069;SDS011;10195;50.868;4.382;2023-06-19T03:32:43;8.80;;;6.55;;
20069;SDS011;10195;50.868;4.382;2023-06-19T03:35:09;12.95;;;6.32;;
20069;SDS011;10195;50.868;4.382;2023-06-19T03:37:35;8.98;;;5.80;;
20069;SDS011;10195;50.868;4.382;2023-06-19T03:40:01;8.55;;;6.63;;
20069;SDS011;10195;50.868;4.382;2023-06-19T03:42:28;7.88;;;5.93;;
20069;SDS011;10195;50.868;4.382;2023-06-19T03:44:54;11.23;;;5.90;;
20069;SDS011;10195;50.868;4.382;2023-06-19T03:47:19;10.45;;;6.45;;
20069;SDS011;10195;50.868;4.382;2023-06-19T03:49:46;11.48;;;6.78;;
20069;SDS011;10195;50.868;4.382;2023-06-19T03:52:13;9.05;;;7.07;;
20069;SDS011;10195;50.868;4.382;2023-06-19T03:54:39;8.68;;;6.53;;
20069;SDS011;10195;50.868;4.382;2023-06-19T03:57:04;8.73;;;7.00;;
20069;SDS011;10195;50.868;4.382;2023-06-19T03:59:31;9.15;;;6.93;;
20069;SDS011;10195;50.868;4.382;2023-06-19T04:01:57;8.50;;;6.70;;
20069;SDS011;10195;50.868;4.382;2023-06-19T04:04:22;11.48;;;6.63;;
20069;SDS011;10195;50.868;4.382;2023-06-19T04:06:48;8.65;;;6.38;;
20069;SDS011;10195;50.868;4.382;2023-06-19T04:09:14;13.30;;;6.78;;
20069;SDS011;10195;50.868;4.382;2023-06-19T04:11:40;10.68;;;6.95;;
20069;SDS011;10195;50.868;4.382;2023-06-19T04:14:05;20.52;;;6.97;;
20069;SDS011;10195;50.868;4.382;2023-06-19T04:16:31;10.75;;;6.18;;
20069;SDS011;10195;50.868;4.382;2023-06-19T04:18:57;7.25;;;5.78;;
20069;SDS011;10195;50.868;4.382;2023-06-19T04:21:22;9.23;;;6.22;;
20069;SDS011;10195;50.868;4.382;2023-06-19T04:23:48;12.85;;;5.65;;
20069;SDS011;10195;50.868;4.382;2023-06-19T04:26:13;11.38;;;5.90;;
20069;SDS011;10195;50.868;4.382;2023-06-19T04:28:39;6.93;;;5.80;;
20069;SDS011;10195;50.868;4.382;2023-06-19T04:31:04;6.88;;;5.25;;
20069;SDS011;10195;50.868;4.382;2023-06-19T04:33:30;7.72;;;5.97;;
20069;SDS011;10195;50.868;4.382;2023-06-19T04:35:57;10.98;;;5.80;;
20069;SDS011;10195;50.868;4.382;2023-06-19T04:38:23;10.27;;;6.20;;
20069;SDS011;10195;50.868;4.382;2023-06-19T04:40:49;7.65;;;5.80;;
20069;SDS011;10195;50.868;4.382;2023-06-19T04:43:17;8.98;;;6.70;;
20069;SDS011;10195;50.868;4.382;2023-06-19T04:45:43;11.35;;;7.75;;
20069;SDS011;10195;50.868;4.382;2023-06-19T04:48:09;12.30;;;7.82;;
20069;SDS011;10195;50.868;4.382;2023-06-19T04:50:36;13.30;;;8.57;;
20069;SDS011;10195;50.868;4.382;2023-06-19T04:53:02;11.35;;;6.65;;
20069;SDS011;10195;50.868;4.382;2023-06-19T04:55:28;11.95;;;9.05;;
20069;SDS011;10195;50.868;4.382;2023-06-19T04:57:53;13.38;;;8.48;;
20069;SDS011;10195;50.868;4.382;2023-06-19T05:00:20;11.00;;;8.43;;
20069;SDS011;10195;50.868;4.382;2023-06-19T05:02:48;14.00;;;9.30;;
20069;SDS011;10195;50.868;4.382;2023-06-19T05:05:14;13.65;;;9.23;;
20069;SDS011;10195;50.868;4.382;2023-06-19T05:07:40;11.85;;;9.18;;
20069;SDS011;10195;50.868;4.382;2023-06-19T05:10:06;15.05;;;10.40;;
20069;SDS011;10195;50.868;4.382;2023-06-19T05:12:33;13.00;;;10.05;;
20069;SDS011;10195;50.868;4.382;2023-06-19T05:15:00;12.63;;;10.00;;
20069;SDS011;10195;50.868;4.382;2023-06-19T05:17:25;11.52;;;9.23;;
20069;SDS011;10195;50.868;4.382;2023-06-19T05:19:51;14.80;;;9.65;;
20069;SDS011;10195;50.868;4.382;2023-06-19T05:22:17;14.82;;;9.38;;
20069;SDS011;10195;50.868;4.382;2023-06-19T05:24:46;17.90;;;10.02;;
20069;SDS011;10195;50.868;4.382;2023-06-19T05:27:12;17.55;;;9.77;;
20069;SDS011;10195;50.868;4.382;2023-06-19T05:29:38;11.60;;;9.43;;
20069;SDS011;10195;50.868;4.382;2023-06-19T05:32:04;13.90;;;9.93;;
20069;SDS011;10195;50.868;4.382;2023-06-19T05:34:30;14.68;;;10.07;;
20069;SDS011;10195;50.868;4.382;2023-06-19T05:36:55;18.90;;;10.73;;
20069;SDS011;10195;50.868;4.382;2023-06-19T05:39:21;16.45;;;10.38;;
20069;SDS011;10195;50.868;4.382;2023-06-19T05:41:47;14.13;;;9.90;;
20069;SDS011;10195;50.868;4.382;2023-06-19T05:44:13;16.77;;;11.40;;
20069;SDS011;10195;50.868;4.382;2023-06-19T05:46:42;16.95;;;13.00;;
20069;SDS011;10195;50.868;4.382;2023-06-19T05:49:07;21.60;;;12.80;;
20069;SDS011;10195;50.868;4.382;2023-06-19T05:51:33;19.80;;;13.27;;
20069;SDS011;10195;50.868;4.382;2023-06-19T05:53:59;18.17;;;13.80;;
20069;SDS011;10195;50.868;4.382;2023-06-19T05:56:29;19.05;;;13.77;;
20069;SDS011;10195;50.868;4.382;2023-06-19T05:58:58;19.52;;;13.23;;
20069;SDS011;10195;50.868;4.382;2023-06-19T06:01:25;20.80;;;13.35;;
20069;SDS011;10195;50.868;4.382;2023-06-19T06:03:53;15.90;;;12.02;;
20069;SDS011;10195;50.868;4.382;2023-06-19T06:06:19;20.55;;;13.93;;
20069;SDS011;10195;50.868;4.382;2023-06-19T06:08:45;24.70;;;13.90;;
20069;SDS011;10195;50.868;4.382;2023-06-19T06:11:10;19.40;;;14.32;;
20069;SDS011;10195;50.868;4.382;2023-06-19T06:13:36;21.80;;;15.07;;
20069;SDS011;10195;50.868;4.382;2023-06-19T06:16:02;25.48;;;15.02;;
20069;SDS011;10195;50.868;4.382;2023-06-19T06:18:27;16.70;;;13.57;;
20069;SDS011;10195;50.868;4.382;2023-06-19T06:20:53;18.92;;;13.82;;
20069;SDS011;10195;50.868;4.382;2023-06-19T06:23:19;21.45;;;14.05;;
20069;SDS011;10195;50.868;4.382;2023-06-19T06:25:44;17.58;;;12.98;;
20069;SDS011;10195;50.868;4.382;2023-06-19T06:28:11;19.75;;;12.98;;
20069;SDS011;10195;50.868;4.382;2023-06-19T06:30:36;20.33;;;13.27;;
20069;SDS011;10195;50.868;4.382;2023-06-19T06:33:04;20.20;;;12.95;;
20069;SDS011;10195;50.868;4.382;2023-06-19T06:35:29;19.73;;;13.57;;
20069;SDS011;10195;50.868;4.382;2023-06-19T06:37:55;18.13;;;14.30;;
20069;SDS011;10195;50.868;4.382;2023-06-19T06:40:21;18.13;;;14.43;;
20069;SDS011;10195;50.868;4.382;2023-06-19T06:42:46;20.00;;;13.95;;
20069;SDS011;10195;50.868;4.382;2023-06-19T06:45:12;15.90;;;13.80;;
20069;SDS011;10195;50.868;4.382;2023-06-19T06:47:38;18.08;;;13.73;;
20069;SDS011;10195;50.868;4.382;2023-06-19T06:50:05;19.00;;;14.25;;
20069;SDS011;10195;50.868;4.382;2023-06-19T06:52:32;20.95;;;14.23;;
20069;SDS011;10195;50.868;4.382;2023-06-19T06:54:57;17.80;;;13.23;;
20069;SDS011;10195;50.868;4.382;2023-06-19T06:57:23;16.05;;;12.73;;
20069;SDS011;10195;50.868;4.382;2023-06-19T06:59:49;15.27;;;12.85;;
20069;SDS011;10195;50.868;4.382;2023-06-19T07:02:14;25.50;;;13.23;;
20069;SDS011;10195;50.868;4.382;2023-06-19T07:04:40;21.30;;;12.82;;
20069;SDS011;10195;50.868;4.382;2023-06-19T07:07:05;17.05;;;12.95;;
20069;SDS011;10195;50.868;4.382;2023-06-19T07:09:32;19.67;;;14.48;;
20069;SDS011;10195;50.868;4.382;2023-06-19T07:11:58;21.45;;;14.45;;
20069;SDS011;10195;50.868;4.382;2023-06-19T07:14:23;19.63;;;13.80;;
20069;SDS011;10195;50.868;4.382;2023-06-19T07:16:49;53.97;;;15.77;;
20069;SDS011;10195;50.868;4.382;2023-06-19T07:19:15;20.27;;;12.68;;
20069;SDS011;10195;50.868;4.382;2023-06-19T07:21:41;17.73;;;12.80;;
20069;SDS011;10195;50.868;4.382;2023-06-19T07:24:07;20.90;;;12.70;;
20069;SDS011;10195;50.868;4.382;2023-06-19T07:26:33;16.77;;;11.38;;
20069;SDS011;10195;50.868;4.382;2023-06-19T07:28:59;15.23;;;11.60;;
20069;SDS011;10195;50.868;4.382;2023-06-19T07:31:24;13.15;;;10.05;;
20069;SDS011;10195;50.868;4.382;2023-06-19T07:33:50;16.60;;;11.52;;
20069;SDS011;10195;50.868;4.382;2023-06-19T07:36:16;13.20;;;11.07;;
20069;SDS011;10195;50.868;4.382;2023-06-19T07:38:42;16.38;;;11.43;;
20069;SDS011;10195;50.868;4.382;2023-06-19T07:41:08;13.68;;;10.95;;
20069;SDS011;10195;50.868;4.382;2023-06-19T07:43:36;17.45;;;11.65;;
20069;SDS011;10195;50.868;4.382;2023-06-19T07:46:02;18.27;;;10.88;;
20069;SDS011;10195;50.868;4.382;2023-06-19T07:48:28;16.25;;;10.65;;
20069;SDS011;10195;50.868;4.382;2023-06-19T07:50:54;14.80;;;10.07;;
20069;SDS011;10195;50.868;4.382;2023-06-19T07:53:19;15.35;;;10.63;;
20069;SDS011;10195;50.868;4.382;2023-06-19T07:55:45;15.65;;;9.82;;
20069;SDS011;10195;50.868;4.382;2023-06-19T07:58:11;19.70;;;10.68;;
20069;SDS011;10195;50.868;4.382;2023-06-19T08:00:37;19.38;;;9.93;;
20069;SDS011;10195;50.868;4.382;2023-06-19T08:03:03;15.27;;;9.15;;
20069;SDS011;10195;50.868;4.382;2023-06-19T08:05:29;16.02;;;9.43;;
20069;SDS011;10195;50.868;4.382;2023-06-19T08:07:56;21.05;;;9.23;;
20069;SDS011;10195;50.868;4.382;2023-06-19T08:10:22;16.52;;;9.32;;
20069;SDS011;10195;50.868;4.382;2023-06-19T08:12:47;10.55;;;8.05;;
20069;SDS011;10195;50.868;4.382;2023-06-19T08:15:13;19.38;;;8.65;;
20069;SDS011;10195;50.868;4.382;2023-06-19T08:17:39;15.32;;;8.85;;
20069;SDS011;10195;50.868;4.382;2023-06-19T08:20:05;11.38;;;8.40;;
20069;SDS011;10195;50.868;4.382;2023-06-19T08:22:32;10.82;;;8.07;;
20069;SDS011;10195;50.868;4.382;2023-06-19T08:24:58;14.52;;;7.75;;
20069;SDS011;10195;50.868;4.382;2023-06-19T08:27:23;13.55;;;8.10;;
20069;SDS011;10195;50.868;4.382;2023-06-19T08:29:49;10.80;;;7.28;;
20069;SDS011;10195;50.868;4.382;2023-06-19T08:32:15;13.82;;;7.18;;
20069;SDS011;10195;50.868;4.382;2023-06-19T08:34:41;11.80;;;7.65;;
20069;SDS011;10195;50.868;4.382;2023-06-19T08:37:07;9.98;;;7.50;;
20069;SDS011;10195;50.868;4.382;2023-06-19T08:39:33;10.18;;;7.18;;
20069;SDS011;10195;50.868;4.382;2023-06-19T08:41:59;11.15;;;7.72;;
20069;SDS011;10195;50.868;4.382;2023-06-19T08:44:24;10.68;;;7.30;;
20069;SDS011;10195;50.868;4.382;2023-06-19T08:46:50;12.27;;;6.72;;
20069;SDS011;10195;50.868;4.382;2023-06-19T08:49:16;12.40;;;8.75;;
20069;SDS011;10195;50.868;4.382;2023-06-19T08:51:42;12.85;;;7.85;;
20069;SDS011;10195;50.868;4.382;2023-06-19T08:54:07;10.45;;;7.18;;
20069;SDS011;10195;50.868;4.382;2023-06-19T08:56:33;16.08;;;8.13;;
20069;SDS011;10195;50.868;4.382;2023-06-19T08:59:12;11.70;;;7.13;;
20069;SDS011;10195;50.868;4.382;2023-06-19T09:01:39;12.02;;;7.53;;
20069;SDS011;10195;50.868;4.382;2023-06-19T09:04:11;13.90;;;6.47;;
20069;SDS011;10195;50.868;4.382;2023-06-19T09:06:48;14.95;;;7.22;;
20069;SDS011;10195;50.868;4.382;2023-06-19T09:09:15;11.30;;;7.65;;
20069;SDS011;10195;50.868;4.382;2023-06-19T09:11:41;9.65;;;6.90;;
20069;SDS011;10195;50.868;4.382;2023-06-19T09:14:09;12.43;;;7.70;;
20069;SDS011;10195;50.868;4.382;2023-06-19T09:16:36;12.90;;;7.70;;
20069;SDS011;10195;50.868;4.382;2023-06-19T09:19:06;11.38;;;7.10;;
20069;SDS011;10195;50.868;4.382;2023-06-19T09:21:34;14.85;;;7.90;;
20069;SDS011;10195;50.868;4.382;2023-06-19T09:24:03;10.23;;;6.90;;
20069;SDS011;10195;50.868;4.382;2023-06-19T09:26:29;14.07;;;7.60;;
20069;SDS011;10195;50.868;4.382;2023-06-19T09:28:55;15.90;;;7.40;;
20069;SDS011;10195;50.868;4.382;2023-06-19T09:31:20;14.98;;;7.55;;
20069;SDS011;10195;50.868;4.382;2023-06-19T09:33:57;15.63;;;7.00;;
20069;SDS011;10195;50.868;4.382;2023-06-19T09:36:23;11.95;;;7.60;;
20069;SDS011;10195;50.868;4.382;2023-06-19T09:38:51;15.90;;;7.05;;
20069;SDS011;10195;50.868;4.382;2023-06-19T09:41:17;11.85;;;7.50;;
20069;SDS011;10195;50.868;4.382;2023-06-19T09:43:46;14.35;;;7.15;;
20069;SDS011;10195;50.868;4.382;2023-06-19T09:46:12;18.48;;;7.22;;
20069;SDS011;10195;50.868;4.382;2023-06-19T09:48:42;12.73;;;7.97;;
20069;SDS011;10195;50.868;4.382;2023-06-19T09:51:10;14.95;;;7.20;;
20069;SDS011;10195;50.868;4.382;2023-06-19T09:53:44;14.85;;;7.00;;
20069;SDS011;10195;50.868;4.382;2023-06-19T09:56:14;13.45;;;7.13;;
20069;SDS011;10195;50.868;4.382;2023-06-19T09:58:43;12.63;;;6.88;;
20069;SDS011;10195;50.868;4.382;2023-06-19T10:01:10;13.73;;;7.28;;
20069;SDS011;10195;50.868;4.382;2023-06-19T10:03:37;15.32;;;7.50;;
20069;SDS011;10195;50.868;4.382;2023-06-19T10:06:05;12.80;;;6.50;;
20069;SDS011;10195;50.868;4.382;2023-06-19T10:08:32;11.43;;;6.47;;
20069;SDS011;10195;50.868;4.382;2023-06-19T10:11:04;11.82;;;6.95;;
20069;SDS011;10195;50.868;4.382;2023-06-19T10:13:31;11.98;;;6.78;;
20069;SDS011;10195;50.868;4.382;2023-06-19T10:16:01;12.60;;;7.22;;
20069;SDS011;10195;50.868;4.382;2023-06-19T10:18:27;11.40;;;7.03;;
20069;SDS011;10195;50.868;4.382;2023-06-19T10:20:53;10.38;;;6.80;;
20069;SDS011;10195;50.868;4.382;2023-06-19T10:23:21;13.73;;;7.40;;
20069;SDS011;10195;50.868;4.382;2023-06-19T10:25:54;10.02;;;7.20;;
20069;SDS011;10195;50.868;4.382;2023-06-19T10:28:23;13.93;;;7.35;;
20069;SDS011;10195;50.868;4.382;2023-06-19T10:30:55;9.88;;;7.22;;
20069;SDS011;10195;50.868;4.382;2023-06-19T10:33:29;12.95;;;7.43;;
20069;SDS011;10195;50.868;4.382;2023-06-19T10:36:18;16.10;;;8.15;;
20069;SDS011;10195;50.868;4.382;2023-06-19T10:38:49;17.13;;;9.52;;
20069;SDS011;10195;50.868;4.382;2023-06-19T10:41:15;17.05;;;8.07;;
20069;SDS011;10195;50.868;4.382;2023-06-19T10:43:41;19.52;;;8.98;;
20069;SDS011;10195;50.868;4.382;2023-06-19T10:46:17;9.93;;;7.07;;
20069;SDS011;10195;50.868;4.382;2023-06-19T10:48:42;16.08;;;7.82;;
20069;SDS011;10195;50.868;4.382;2023-06-19T10:51:08;12.38;;;8.00;;
20069;SDS011;10195;50.868;4.382;2023-06-19T10:53:34;17.63;;;6.97;;
20069;SDS011;10195;50.868;4.382;2023-06-19T10:56:00;12.07;;;7.57;;
20069;SDS011;10195;50.868;4.382;2023-06-19T10:58:28;12.02;;;7.65;;
20069;SDS011;10195;50.868;4.382;2023-06-19T11:00:54;15.60;;;8.88;;
20069;SDS011;10195;50.868;4.382;2023-06-19T11:03:20;16.30;;;9.38;;
20069;SDS011;10195;50.868;4.382;2023-06-19T11:05:47;15.00;;;8.57;;
20069;SDS011;10195;50.868;4.382;2023-06-19T11:08:20;18.25;;;8.35;;
20069;SDS011;10195;50.868;4.382;2023-06-19T11:10:47;10.80;;;6.70;;
20069;SDS011;10195;50.868;4.382;2023-06-19T11:13:14;14.52;;;6.65;;
20069;SDS011;10195;50.868;4.382;2023-06-19T11:15:44;16.45;;;7.13;;
20069;SDS011;10195;50.868;4.382;2023-06-19T11:18:10;18.75;;;8.02;;
20069;SDS011;10195;50.868;4.382;2023-06-19T11:20:46;9.77;;;6.75;;
20069;SDS011;10195;50.868;4.382;2023-06-19T11:23:15;14.50;;;7.40;;
20069;SDS011;10195;50.868;4.382;2023-06-19T11:25:42;12.63;;;7.32;;
20069;SDS011;10195;50.868;4.382;2023-06-19T11:28:11;12.18;;;7.55;;
20069;SDS011;10195;50.868;4.382;2023-06-19T11:30:43;20.98;;;6.88;;
20069;SDS011;10195;50.868;4.382;2023-06-19T11:33:41;20.58;;;9.60;;
20069;SDS011;10195;50.868;4.382;2023-06-19T11:36:01;40.08;;;9.55;;
20069;SDS011;10195;50.868;4.382;2023-06-19T11:38:27;14.07;;;8.70;;
20069;SDS011;10195;50.868;4.382;2023-06-19T11:40:54;19.10;;;9.27;;
20069;SDS011;10195;50.868;4.382;2023-06-19T11:43:28;19.88;;;10.40;;
20069;SDS011;10195;50.868;4.382;2023-06-19T11:46:05;19.20;;;10.23;;
20069;SDS011;10195;50.868;4.382;2023-06-19T11:48:31;30.30;;;11.15;;
20069;SDS011;10195;50.868;4.382;2023-06-19T11:50:57;19.33;;;10.90;;
20069;SDS011;10195;50.868;4.382;2023-06-19T11:53:23;19.27;;;8.75;;
20069;SDS011;10195;50.868;4.382;2023-06-19T11:55:53;11.70;;;8.15;;
20069;SDS011;10195;50.868;4.382;2023-06-19T11:58:18;25.17;;;8.93;;
20069;SDS011;10195;50.868;4.382;2023-06-19T12:00:47;14.63;;;8.57;;
20069;SDS011;10195;50.868;4.382;2023-06-19T12:03:13;20.95;;;8.80;;
20069;SDS011;10195;50.868;4.382;2023-06-19T12:05:39;18.00;;;9.02;;
20069;SDS011;10195;50.868;4.382;2023-06-19T12:08:05;18.33;;;9.40;;
20069;SDS011;10195;50.868;4.382;2023-06-19T12:10:32;11.13;;;7.30;;
20069;SDS011;10195;50.868;4.382;2023-06-19T12:13:01;13.60;;;8.18;;
20069;SDS011;10195;50.868;4.382;2023-06-19T12:15:26;11.23;;;7.38;;
20069;SDS011;10195;50.868;4.382;2023-06-19T12:17:52;16.67;;;7.53;;
20069;SDS011;10195;50.868;4.382;2023-06-19T12:20:18;13.77;;;6.45;;
20069;SDS011;10195;50.868;4.382;2023-06-19T12:22:44;215.13;;;16.52;;
20069;SDS011;10195;50.868;4.382;2023-06-19T12:25:10;21.58;;;7.15;;
20069;SDS011;10195;50.868;4.382;2023-06-19T12:27:37;15.52;;;6.78;;
20069;SDS011;10195;50.868;4.382;2023-06-19T12:30:03;15.20;;;7.15;;
20069;SDS011;10195;50.868;4.382;2023-06-19T12:32:29;10.90;;;7.30;;
20069;SDS011;10195;50.868;4.382;2023-06-19T12:34:55;13.25;;;7.95;;
20069;SDS011;10195;50.868;4.382;2023-06-19T12:37:20;12.52;;;6.80;;
20069;SDS011;10195;50.868;4.382;2023-06-19T12:39:46;23.48;;;7.07;;
20069;SDS011;10195;50.868;4.382;2023-06-19T12:42:14;11.02;;;7.03;;
20069;SDS011;10195;50.868;4.382;2023-06-19T12:44:40;13.27;;;6.82;;
20069;SDS011;10195;50.868;4.382;2023-06-19T12:47:07;12.07;;;6.93;;
20069;SDS011;10195;50.868;4.382;2023-06-19T12:49:33;9.52;;;6.30;;
20069;SDS011;10195;50.868;4.382;2023-06-19T12:51:59;13.95;;;7.05;;
20069;SDS011;10195;50.868;4.382;2023-06-19T12:54:25;11.45;;;6.60;;
20069;SDS011;10195;50.868;4.382;2023-06-19T12:56:51;16.02;;;7.10;;
20069;SDS011;10195;50.868;4.382;2023-06-19T12:59:17;12.30;;;6.40;;
20069;SDS011;10195;50.868;4.382;2023-06-19T13:01:43;12.02;;;6.50;;
20069;SDS011;10195;50.868;4.382;2023-06-19T13:04:09;9.50;;;6.03;;
20069;SDS011;10195;50.868;4.382;2023-06-19T13:06:37;13.18;;;5.95;;
20069;SDS011;10195;50.868;4.382;2023-06-19T13:09:04;8.60;;;5.68;;
20069;SDS011;10195;50.868;4.382;2023-06-19T13:11:30;10.68;;;5.90;;
20069;SDS011;10195;50.868;4.382;2023-06-19T13:13:59;9.40;;;5.95;;
20069;SDS011;10195;50.868;4.382;2023-06-19T13:16:25;20.30;;;6.10;;
20069;SDS011;10195;50.868;4.382;2023-06-19T13:18:50;10.68;;;5.88;;
20069;SDS011;10195;50.868;4.382;2023-06-19T13:21:16;9.35;;;5.78;;
20069;SDS011;10195;50.868;4.382;2023-06-19T13:23:42;8.00;;;5.30;;
20069;SDS011;10195;50.868;4.382;2023-06-19T13:26:08;8.90;;;5.55;;
20069;SDS011;10195;50.868;4.382;2023-06-19T13:28:34;9.35;;;5.68;;
20069;SDS011;10195;50.868;4.382;2023-06-19T13:31:00;12.27;;;5.25;;
20069;SDS011;10195;50.868;4.382;2023-06-19T13:33:26;9.73;;;5.10;;
20069;SDS011;10195;50.868;4.382;2023-06-19T13:35:51;9.45;;;4.88;;
20069;SDS011;10195;50.868;4.382;2023-06-19T13:38:17;13.35;;;5.25;;
20069;SDS011;10195;50.868;4.382;2023-06-19T13:40:43;6.78;;;4.93;;
20069;SDS011;10195;50.868;4.382;2023-06-19T13:43:09;7.78;;;4.63;;
20069;SDS011;10195;50.868;4.382;2023-06-19T13:45:35;11.07;;;5.32;;
20069;SDS011;10195;50.868;4.382;2023-06-19T13:48:01;14.73;;;5.40;;
20069;SDS011;10195;50.868;4.382;2023-06-19T13:50:27;8.50;;;5.43;;
20069;SDS011;10195;50.868;4.382;2023-06-19T13:52:52;11.32;;;5.35;;
20069;SDS011;10195;50.868;4.382;2023-06-19T13:55:19;8.77;;;4.80;;
20069;SDS011;10195;50.868;4.382;2023-06-19T13:57:45;9.48;;;5.40;;
20069;SDS011;10195;50.868;4.382;2023-06-19T14:00:11;9.13;;;5.35;;
20069;SDS011;10195;50.868;4.382;2023-06-19T14:02:37;10.52;;;5.45;;
20069;SDS011;10195;50.868;4.382;2023-06-19T14:05:07;9.63;;;5.00;;
20069;SDS011;10195;50.868;4.382;2023-06-19T14:07:34;6.30;;;4.43;;
20069;SDS011;10195;50.868;4.382;2023-06-19T14:10:00;8.25;;;4.72;;
20069;SDS011;10195;50.868;4.382;2023-06-19T14:12:27;11.55;;;5.47;;
20069;SDS011;10195;50.868;4.382;2023-06-19T14:14:53;12.45;;;4.80;;
20069;SDS011;10195;50.868;4.382;2023-06-19T14:17:20;6.45;;;5.00;;
20069;SDS011;10195;50.868;4.382;2023-06-19T14:19:45;8.55;;;5.10;;
20069;SDS011;10195;50.868;4.382;2023-06-19T14:22:11;9.50;;;5.15;;
20069;SDS011;10195;50.868;4.382;2023-06-19T14:24:37;8.27;;;5.10;;
20069;SDS011;10195;50.868;4.382;2023-06-19T14:27:02;7.03;;;4.63;;
20069;SDS011;10195;50.868;4.382;2023-06-19T14:29:28;14.88;;;5.88;;
20069;SDS011;10195;50.868;4.382;2023-06-19T14:31:54;7.50;;;4.40;;
20069;SDS011;10195;50.868;4.382;2023-06-19T14:34:19;6.25;;;4.10;;
20069;SDS011;10195;50.868;4.382;2023-06-19T14:36:45;4.35;;;3.60;;
20069;SDS011;10195;50.868;4.382;2023-06-19T14:39:11;6.30;;;4.10;;